sensor_id;sensor_type;location;lat;lon;timestamp;temperature;humidity
40516;DHT22;26216;53.724;9.898;2024-03-25T00:01:38;8.30;99.90
40516;DHT22;26216;53.724;9.898;2024-03-25T00:04:22;8.30;99.90
40516;DHT22;26216;53.724;9.898;2024-03-25T00:07:07;8.20;99.90
40516;DHT22;26216;53.724;9.898;2024-03-25T00:09:33;8.20;99.90
40516;DHT22;26216;53.724;9.898;2024-03-25T00:12:17;8.30;99.90
40516;DHT22;26216;53.724;9.898;2024-03-25T00:15:03;8.20;99.90
40516;DHT22;26216;53.724;9.898;2024-03-25T00:17:47;8.20;99.90
40516;DHT22;26216;53.724;9.898;2024-03-25T00:20:31;8.20;99.90
40516;DHT22;26216;53.724;9.898;2024-03-25T00:22:57;8.20;99.90
40516;DHT22;26216;53.724;9.898;2024-03-25T00:25:41;8.10;99.90
40516;DHT22;26216;53.724;9.898;2024-03-25T00:28:26;8.10;99.90
40516;DHT22;26216;53.724;9.898;2024-03-25T00:31:10;8.20;99.90
40516;DHT22;26216;53.724;9.898;2024-03-25T00:33:54;8.20;99.90
40516;DHT22;26216;53.724;9.898;2024-03-25T00:36:20;8.20;99.90
40516;DHT22;26216;53.724;9.898;2024-03-25T00:39:05;8.20;99.90
40516;DHT22;26216;53.724;9.898;2024-03-25T00:41:50;8.20;99.90
40516;DHT22;26216;53.724;9.898;2024-03-25T00:44:34;8.20;99.90
40516;DHT22;26216;53.724;9.898;2024-03-25T00:47:19;8.30;99.90
40516;DHT22;26216;53.724;9.898;2024-03-25T00:50:03;8.30;99.90
40516;DHT22;26216;53.724;9.898;2024-03-25T00:52:48;8.30;99.90
40516;DHT22;26216;53.724;9.898;2024-03-25T00:55:33;8.20;99.90
40516;DHT22;26216;53.724;9.898;2024-03-25T00:58:19;8.30;99.90
40516;DHT22;26216;53.724;9.898;2024-03-25T01:00:45;8.20;99.90
40516;DHT22;26216;53.724;9.898;2024-03-25T01:03:29;8.30;99.90
40516;DHT22;26216;53.724;9.898;2024-03-25T01:06:13;8.30;99.90
40516;DHT22;26216;53.724;9.898;2024-03-25T01:08:58;8.20;99.90
40516;DHT22;26216;53.724;9.898;2024-03-25T01:11:43;8.30;99.90
40516;DHT22;26216;53.724;9.898;2024-03-25T01:14:08;8.30;99.90
40516;DHT22;26216;53.724;9.898;2024-03-25T01:16:53;8.20;99.90
40516;DHT22;26216;53.724;9.898;2024-03-25T01:19:37;8.20;99.90
40516;DHT22;26216;53.724;9.898;2024-03-25T01:22:28;8.20;99.90
40516;DHT22;26216;53.724;9.898;2024-03-25T01:25:19;8.20;99.90
40516;DHT22;26216;53.724;9.898;2024-03-25T01:28:04;8.20;99.90
40516;DHT22;26216;53.724;9.898;2024-03-25T01:30:49;8.10;99.90
40516;DHT22;26216;53.724;9.898;2024-03-25T01:33:14;8.10;99.90
40516;DHT22;26216;53.724;9.898;2024-03-25T01:35:59;8.10;99.90
40516;DHT22;26216;53.724;9.898;2024-03-25T01:38:40;8.10;99.90
40516;DHT22;26216;53.724;9.898;2024-03-25T01:41:10;8.10;99.90
40516;DHT22;26216;53.724;9.898;2024-03-25T01:43:55;8.10;99.90
40516;DHT22;26216;53.724;9.898;2024-03-25T01:46:39;8.10;99.90
40516;DHT22;26216;53.724;9.898;2024-03-25T01:49:06;8.10;99.90
40516;DHT22;26216;53.724;9.898;2024-03-25T01:51:51;8.10;99.90
40516;DHT22;26216;53.724;9.898;2024-03-25T01:54:35;8.10;99.90
40516;DHT22;26216;53.724;9.898;2024-03-25T01:57:01;8.10;99.90
40516;DHT22;26216;53.724;9.898;2024-03-25T01:59:46;8.10;99.90
40516;DHT22;26216;53.724;9.898;2024-03-25T02:02:40;8.10;99.90
40516;DHT22;26216;53.724;9.898;2024-03-25T02:05:26;8.00;99.90
40516;DHT22;26216;53.724;9.898;2024-03-25T02:08:06;8.10;99.90
40516;DHT22;26216;53.724;9.898;2024-03-25T02:10:51;8.10;99.90
40516;DHT22;26216;53.724;9.898;2024-03-25T02:13:21;8.00;99.90
40516;DHT22;26216;53.724;9.898;2024-03-25T02:16:06;8.00;99.90
40516;DHT22;26216;53.724;9.898;2024-03-25T02:18:57;7.90;99.90
40516;DHT22;26216;53.724;9.898;2024-03-25T02:21:22;8.00;99.90
40516;DHT22;26216;53.724;9.898;2024-03-25T02:24:09;7.90;99.90
40516;DHT22;26216;53.724;9.898;2024-03-25T02:26:54;7.90;99.90
40516;DHT22;26216;53.724;9.898;2024-03-25T02:29:39;7.80;99.90
40516;DHT22;26216;53.724;9.898;2024-03-25T02:32:23;7.70;99.90
40516;DHT22;26216;53.724;9.898;2024-03-25T02:34:51;7.70;99.90
40516;DHT22;26216;53.724;9.898;2024-03-25T02:37:37;7.70;99.90
40516;DHT22;26216;53.724;9.898;2024-03-25T02:40:22;7.70;99.90
40516;DHT22;26216;53.724;9.898;2024-03-25T02:42:49;7.70;99.90
40516;DHT22;26216;53.724;9.898;2024-03-25T02:45:33;7.60;99.90
40516;DHT22;26216;53.724;9.898;2024-03-25T02:48:17;7.70;99.90
40516;DHT22;26216;53.724;9.898;2024-03-25T02:51:01;7.70;99.90
40516;DHT22;26216;53.724;9.898;2024-03-25T02:53:46;7.70;99.90
40516;DHT22;26216;53.724;9.898;2024-03-25T02:56:30;7.70;99.90
40516;DHT22;26216;53.724;9.898;2024-03-25T02:59:14;7.60;99.90
40516;DHT22;26216;53.724;9.898;2024-03-25T03:01:58;7.60;99.90
40516;DHT22;26216;53.724;9.898;2024-03-25T03:04:42;7.70;99.90
40516;DHT22;26216;53.724;9.898;2024-03-25T03:07:08;7.70;99.90
40516;DHT22;26216;53.724;9.898;2024-03-25T03:09:53;7.60;99.90
40516;DHT22;26216;53.724;9.898;2024-03-25T03:12:37;7.70;99.90
40516;DHT22;26216;53.724;9.898;2024-03-25T03:15:28;7.70;99.90
40516;DHT22;26216;53.724;9.898;2024-03-25T03:18:12;7.70;99.90
40516;DHT22;26216;53.724;9.898;2024-03-25T03:20:38;7.70;99.90
40516;DHT22;26216;53.724;9.898;2024-03-25T03:23:04;7.70;99.90
40516;DHT22;26216;53.724;9.898;2024-03-25T03:25:48;7.70;99.90
40516;DHT22;26216;53.724;9.898;2024-03-25T03:28:33;7.70;99.90
40516;DHT22;26216;53.724;9.898;2024-03-25T03:30:58;7.80;99.90
40516;DHT22;26216;53.724;9.898;2024-03-25T03:33:24;7.80;99.90
40516;DHT22;26216;53.724;9.898;2024-03-25T03:35:51;7.80;99.90
40516;DHT22;26216;53.724;9.898;2024-03-25T03:38:17;7.80;99.90
40516;DHT22;26216;53.724;9.898;2024-03-25T03:40:46;7.80;99.90
40516;DHT22;26216;53.724;9.898;2024-03-25T03:43:20;7.80;99.90
40516;DHT22;26216;53.724;9.898;2024-03-25T03:46:04;7.80;99.90
40516;DHT22;26216;53.724;9.898;2024-03-25T03:48:49;7.80;99.90
40516;DHT22;26216;53.724;9.898;2024-03-25T03:51:15;7.80;99.90
40516;DHT22;26216;53.724;9.898;2024-03-25T03:53:40;7.80;99.90
40516;DHT22;26216;53.724;9.898;2024-03-25T03:56:25;7.90;99.90
40516;DHT22;26216;53.724;9.898;2024-03-25T03:59:02;7.90;99.90
40516;DHT22;26216;53.724;9.898;2024-03-25T04:01:29;7.90;99.90
40516;DHT22;26216;53.724;9.898;2024-03-25T04:03:55;7.90;99.90
40516;DHT22;26216;53.724;9.898;2024-03-25T04:06:22;7.90;99.90
40516;DHT22;26216;53.724;9.898;2024-03-25T04:08:47;7.90;99.90
40516;DHT22;26216;53.724;9.898;2024-03-25T04:11:14;7.90;99.90
40516;DHT22;26216;53.724;9.898;2024-03-25T04:13:40;7.90;99.90
40516;DHT22;26216;53.724;9.898;2024-03-25T04:16:06;7.90;99.90
40516;DHT22;26216;53.724;9.898;2024-03-25T04:18:33;7.90;99.90
40516;DHT22;26216;53.724;9.898;2024-03-25T04:21:18;7.80;99.90
40516;DHT22;26216;53.724;9.898;2024-03-25T04:24:03;7.80;99.90
40516;DHT22;26216;53.724;9.898;2024-03-25T04:26:47;7.80;99.90
40516;DHT22;26216;53.724;9.898;2024-03-25T04:29:31;7.80;99.90
40516;DHT22;26216;53.724;9.898;2024-03-25T04:31:57;7.80;99.90
40516;DHT22;26216;53.724;9.898;2024-03-25T04:34:41;7.70;99.90
40516;DHT22;26216;53.724;9.898;2024-03-25T04:37:26;7.70;99.90
40516;DHT22;26216;53.724;9.898;2024-03-25T04:40:12;7.70;99.90
40516;DHT22;26216;53.724;9.898;2024-03-25T04:42:58;7.60;99.90
40516;DHT22;26216;53.724;9.898;2024-03-25T04:45:43;7.50;99.90
40516;DHT22;26216;53.724;9.898;2024-03-25T04:48:29;7.50;99.90
40516;DHT22;26216;53.724;9.898;2024-03-25T04:51:14;7.50;99.90
40516;DHT22;26216;53.724;9.898;2024-03-25T04:53:58;7.50;99.90
40516;DHT22;26216;53.724;9.898;2024-03-25T04:56:24;7.50;99.90
40516;DHT22;26216;53.724;9.898;2024-03-25T04:59:08;7.50;99.90
40516;DHT22;26216;53.724;9.898;2024-03-25T05:01:53;7.60;99.90
40516;DHT22;26216;53.724;9.898;2024-03-25T05:04:19;7.60;99.90
40516;DHT22;26216;53.724;9.898;2024-03-25T05:07:04;7.60;99.90
40516;DHT22;26216;53.724;9.898;2024-03-25T05:09:48;7.60;99.90
40516;DHT22;26216;53.724;9.898;2024-03-25T05:12:32;7.70;99.90
40516;DHT22;26216;53.724;9.898;2024-03-25T05:15:17;7.70;99.90
40516;DHT22;26216;53.724;9.898;2024-03-25T05:18:01;7.70;99.90
40516;DHT22;26216;53.724;9.898;2024-03-25T05:20:45;7.80;99.90
40516;DHT22;26216;53.724;9.898;2024-03-25T05:23:11;7.80;99.90
40516;DHT22;26216;53.724;9.898;2024-03-25T05:25:55;7.80;99.90
40516;DHT22;26216;53.724;9.898;2024-03-25T05:28:39;7.80;99.90
40516;DHT22;26216;53.724;9.898;2024-03-25T05:31:24;7.90;99.90
40516;DHT22;26216;53.724;9.898;2024-03-25T05:34:08;7.90;99.90
40516;DHT22;26216;53.724;9.898;2024-03-25T05:36:54;7.90;99.90
40516;DHT22;26216;53.724;9.898;2024-03-25T05:39:38;8.00;99.90
40516;DHT22;26216;53.724;9.898;2024-03-25T05:42:22;8.00;99.90
40516;DHT22;26216;53.724;9.898;2024-03-25T05:45:07;8.10;99.90
40516;DHT22;26216;53.724;9.898;2024-03-25T05:47:53;8.10;99.90
40516;DHT22;26216;53.724;9.898;2024-03-25T05:50:37;8.10;99.90
40516;DHT22;26216;53.724;9.898;2024-03-25T05:53:21;8.10;99.90
40516;DHT22;26216;53.724;9.898;2024-03-25T05:56:06;8.20;99.90
40516;DHT22;26216;53.724;9.898;2024-03-25T05:58:32;8.20;99.90
40516;DHT22;26216;53.724;9.898;2024-03-25T06:01:16;8.20;99.90
40516;DHT22;26216;53.724;9.898;2024-03-25T06:04:00;8.30;99.90
40516;DHT22;26216;53.724;9.898;2024-03-25T06:06:45;8.30;99.90
40516;DHT22;26216;53.724;9.898;2024-03-25T06:09:30;8.30;99.90
40516;DHT22;26216;53.724;9.898;2024-03-25T06:11:55;8.40;99.90
40516;DHT22;26216;53.724;9.898;2024-03-25T06:14:40;8.40;99.90
40516;DHT22;26216;53.724;9.898;2024-03-25T06:17:24;8.40;99.90
40516;DHT22;26216;53.724;9.898;2024-03-25T06:19:50;8.50;99.90
40516;DHT22;26216;53.724;9.898;2024-03-25T06:22:36;8.50;99.90
40516;DHT22;26216;53.724;9.898;2024-03-25T06:25:20;8.60;99.90
40516;DHT22;26216;53.724;9.898;2024-03-25T06:28:04;8.60;99.90
40516;DHT22;26216;53.724;9.898;2024-03-25T06:30:50;8.70;99.90
40516;DHT22;26216;53.724;9.898;2024-03-25T06:33:54;8.80;99.90
40516;DHT22;26216;53.724;9.898;2024-03-25T06:36:57;8.80;99.90
40516;DHT22;26216;53.724;9.898;2024-03-25T06:39:41;8.80;99.90
40516;DHT22;26216;53.724;9.898;2024-03-25T06:42:26;8.90;99.90
40516;DHT22;26216;53.724;9.898;2024-03-25T06:45:10;8.90;99.90
40516;DHT22;26216;53.724;9.898;2024-03-25T06:47:55;8.90;99.90
40516;DHT22;26216;53.724;9.898;2024-03-25T06:50:39;8.90;99.90
40516;DHT22;26216;53.724;9.898;2024-03-25T06:53:23;8.90;99.90
40516;DHT22;26216;53.724;9.898;2024-03-25T06:56:08;8.90;99.90
40516;DHT22;26216;53.724;9.898;2024-03-25T06:58:53;9.00;99.90
40516;DHT22;26216;53.724;9.898;2024-03-25T07:01:18;9.00;99.90
40516;DHT22;26216;53.724;9.898;2024-03-25T07:04:02;9.00;99.90
40516;DHT22;26216;53.724;9.898;2024-03-25T07:06:47;9.00;99.90
40516;DHT22;26216;53.724;9.898;2024-03-25T07:09:13;9.00;99.90
40516;DHT22;26216;53.724;9.898;2024-03-25T07:11:57;9.00;99.90
40516;DHT22;26216;53.724;9.898;2024-03-25T07:14:42;9.00;99.90
40516;DHT22;26216;53.724;9.898;2024-03-25T07:17:07;9.00;99.90
40516;DHT22;26216;53.724;9.898;2024-03-25T07:19:33;9.00;99.90
40516;DHT22;26216;53.724;9.898;2024-03-25T07:21:59;9.00;99.90
40516;DHT22;26216;53.724;9.898;2024-03-25T07:24:44;9.00;99.90
40516;DHT22;26216;53.724;9.898;2024-03-25T07:27:28;9.00;99.90
40516;DHT22;26216;53.724;9.898;2024-03-25T07:30:12;8.90;99.90
40516;DHT22;26216;53.724;9.898;2024-03-25T07:32:57;8.90;99.90
40516;DHT22;26216;53.724;9.898;2024-03-25T07:35:24;8.90;99.90
40516;DHT22;26216;53.724;9.898;2024-03-25T07:37:51;8.90;99.90
40516;DHT22;26216;53.724;9.898;2024-03-25T07:40:20;9.00;99.90
40516;DHT22;26216;53.724;9.898;2024-03-25T07:42:47;9.00;99.90
40516;DHT22;26216;53.724;9.898;2024-03-25T07:45:13;9.10;99.90
40516;DHT22;26216;53.724;9.898;2024-03-25T07:47:40;9.20;99.90
40516;DHT22;26216;53.724;9.898;2024-03-25T07:50:06;9.20;99.90
40516;DHT22;26216;53.724;9.898;2024-03-25T07:52:33;9.30;99.90
40516;DHT22;26216;53.724;9.898;2024-03-25T07:54:59;9.40;99.90
40516;DHT22;26216;53.724;9.898;2024-03-25T07:57:25;9.40;99.90
40516;DHT22;26216;53.724;9.898;2024-03-25T07:59:51;9.50;99.90
40516;DHT22;26216;53.724;9.898;2024-03-25T08:02:17;9.60;99.90
40516;DHT22;26216;53.724;9.898;2024-03-25T08:04:42;9.60;99.90
40516;DHT22;26216;53.724;9.898;2024-03-25T08:07:08;9.70;99.90
40516;DHT22;26216;53.724;9.898;2024-03-25T08:09:34;9.70;99.90
40516;DHT22;26216;53.724;9.898;2024-03-25T08:12:00;9.70;99.90
40516;DHT22;26216;53.724;9.898;2024-03-25T08:14:26;9.70;99.90
40516;DHT22;26216;53.724;9.898;2024-03-25T08:16:52;9.80;99.90
40516;DHT22;26216;53.724;9.898;2024-03-25T08:19:18;9.80;99.90
40516;DHT22;26216;53.724;9.898;2024-03-25T08:21:44;9.80;99.90
40516;DHT22;26216;53.724;9.898;2024-03-25T08:24:10;9.80;99.90
40516;DHT22;26216;53.724;9.898;2024-03-25T08:26:36;9.90;99.90
40516;DHT22;26216;53.724;9.898;2024-03-25T08:29:02;9.90;99.90
40516;DHT22;26216;53.724;9.898;2024-03-25T08:31:29;10.00;99.90
40516;DHT22;26216;53.724;9.898;2024-03-25T08:33:55;10.00;99.90
40516;DHT22;26216;53.724;9.898;2024-03-25T08:36:21;10.10;99.90
40516;DHT22;26216;53.724;9.898;2024-03-25T08:38:47;10.30;99.90
40516;DHT22;26216;53.724;9.898;2024-03-25T08:41:13;10.30;99.90
40516;DHT22;26216;53.724;9.898;2024-03-25T08:43:40;10.50;99.90
40516;DHT22;26216;53.724;9.898;2024-03-25T08:46:06;10.50;99.90
40516;DHT22;26216;53.724;9.898;2024-03-25T08:48:32;10.50;99.90
40516;DHT22;26216;53.724;9.898;2024-03-25T08:50:58;10.50;99.90
40516;DHT22;26216;53.724;9.898;2024-03-25T08:53:24;10.40;99.90
40516;DHT22;26216;53.724;9.898;2024-03-25T08:55:50;10.10;99.90
40516;DHT22;26216;53.724;9.898;2024-03-25T08:58:16;9.90;99.90
40516;DHT22;26216;53.724;9.898;2024-03-25T09:00:43;9.80;99.90
40516;DHT22;26216;53.724;9.898;2024-03-25T09:03:09;9.70;99.90
40516;DHT22;26216;53.724;9.898;2024-03-25T09:05:36;9.60;99.90
40516;DHT22;26216;53.724;9.898;2024-03-25T09:08:08;9.60;99.90
40516;DHT22;26216;53.724;9.898;2024-03-25T09:10:37;9.50;99.90
40516;DHT22;26216;53.724;9.898;2024-03-25T09:13:21;9.60;99.90
40516;DHT22;26216;53.724;9.898;2024-03-25T09:15:49;9.50;99.90
40516;DHT22;26216;53.724;9.898;2024-03-25T09:18:15;9.60;99.90
40516;DHT22;26216;53.724;9.898;2024-03-25T09:20:41;9.60;99.90
40516;DHT22;26216;53.724;9.898;2024-03-25T09:23:07;9.70;99.90
40516;DHT22;26216;53.724;9.898;2024-03-25T09:25:33;9.70;99.90
40516;DHT22;26216;53.724;9.898;2024-03-25T09:27:59;9.80;99.90
40516;DHT22;26216;53.724;9.898;2024-03-25T09:30:25;9.80;99.90
40516;DHT22;26216;53.724;9.898;2024-03-25T09:32:51;9.80;99.90
40516;DHT22;26216;53.724;9.898;2024-03-25T09:35:16;9.90;99.90
40516;DHT22;26216;53.724;9.898;2024-03-25T09:37:42;10.00;99.90
40516;DHT22;26216;53.724;9.898;2024-03-25T09:40:09;10.00;99.90
40516;DHT22;26216;53.724;9.898;2024-03-25T09:42:48;10.10;99.90
40516;DHT22;26216;53.724;9.898;2024-03-25T09:45:17;10.10;99.90
40516;DHT22;26216;53.724;9.898;2024-03-25T09:47:47;10.20;99.90
40516;DHT22;26216;53.724;9.898;2024-03-25T09:50:14;10.20;99.90
40516;DHT22;26216;53.724;9.898;2024-03-25T09:52:51;10.30;99.90
40516;DHT22;26216;53.724;9.898;2024-03-25T09:55:17;10.30;99.90
40516;DHT22;26216;53.724;9.898;2024-03-25T09:57:44;10.30;99.90
40516;DHT22;26216;53.724;9.898;2024-03-25T10:00:11;10.30;99.90
40516;DHT22;26216;53.724;9.898;2024-03-25T10:02:38;10.30;99.90
40516;DHT22;26216;53.724;9.898;2024-03-25T10:05:08;10.40;99.90
40516;DHT22;26216;53.724;9.898;2024-03-25T10:07:35;10.40;99.90
40516;DHT22;26216;53.724;9.898;2024-03-25T10:10:05;10.50;99.90
40516;DHT22;26216;53.724;9.898;2024-03-25T10:12:32;10.60;99.90
40516;DHT22;26216;53.724;9.898;2024-03-25T10:14:58;10.60;99.90
40516;DHT22;26216;53.724;9.898;2024-03-25T10:17:24;10.60;99.90
40516;DHT22;26216;53.724;9.898;2024-03-25T10:19:50;10.60;99.90
40516;DHT22;26216;53.724;9.898;2024-03-25T10:22:16;10.50;99.90
40516;DHT22;26216;53.724;9.898;2024-03-25T10:24:44;10.50;99.90
40516;DHT22;26216;53.724;9.898;2024-03-25T10:27:23;10.50;99.90
40516;DHT22;26216;53.724;9.898;2024-03-25T10:29:54;10.50;99.90
40516;DHT22;26216;53.724;9.898;2024-03-25T10:32:23;10.30;99.90
40516;DHT22;26216;53.724;9.898;2024-03-25T10:34:51;10.30;99.90
40516;DHT22;26216;53.724;9.898;2024-03-25T10:37:18;10.30;99.90
40516;DHT22;26216;53.724;9.898;2024-03-25T10:39:50;10.30;99.90
40516;DHT22;26216;53.724;9.898;2024-03-25T10:42:21;10.30;99.90
40516;DHT22;26216;53.724;9.898;2024-03-25T10:44:48;10.40;99.90
40516;DHT22;26216;53.724;9.898;2024-03-25T10:47:20;10.40;99.90
40516;DHT22;26216;53.724;9.898;2024-03-25T10:49:49;10.30;99.90
40516;DHT22;26216;53.724;9.898;2024-03-25T10:52:17;10.30;99.90
40516;DHT22;26216;53.724;9.898;2024-03-25T10:54:46;10.40;99.90
40516;DHT22;26216;53.724;9.898;2024-03-25T10:57:13;10.50;99.90
40516;DHT22;26216;53.724;9.898;2024-03-25T10:59:41;10.50;99.90
40516;DHT22;26216;53.724;9.898;2024-03-25T11:02:11;10.70;99.90
40516;DHT22;26216;53.724;9.898;2024-03-25T11:04:39;10.70;99.90
40516;DHT22;26216;53.724;9.898;2024-03-25T11:07:10;10.80;99.90
40516;DHT22;26216;53.724;9.898;2024-03-25T11:09:36;10.80;99.90
40516;DHT22;26216;53.724;9.898;2024-03-25T11:12:03;10.80;99.90
40516;DHT22;26216;53.724;9.898;2024-03-25T11:14:30;10.80;99.90
40516;DHT22;26216;53.724;9.898;2024-03-25T11:17:00;10.70;99.90
40516;DHT22;26216;53.724;9.898;2024-03-25T11:19:28;10.70;99.90
40516;DHT22;26216;53.724;9.898;2024-03-25T11:22:05;10.70;99.90
40516;DHT22;26216;53.724;9.898;2024-03-25T11:24:34;10.70;99.90
40516;DHT22;26216;53.724;9.898;2024-03-25T11:27:03;10.70;99.90
40516;DHT22;26216;53.724;9.898;2024-03-25T11:29:31;10.80;99.90
40516;DHT22;26216;53.724;9.898;2024-03-25T11:32:03;10.90;99.90
40516;DHT22;26216;53.724;9.898;2024-03-25T11:34:29;11.00;99.90
40516;DHT22;26216;53.724;9.898;2024-03-25T11:36:55;11.20;99.90
40516;DHT22;26216;53.724;9.898;2024-03-25T11:39:24;11.30;99.90
40516;DHT22;26216;53.724;9.898;2024-03-25T11:41:52;11.40;99.90
40516;DHT22;26216;53.724;9.898;2024-03-25T11:44:19;11.50;99.90
40516;DHT22;26216;53.724;9.898;2024-03-25T11:46:45;11.50;99.90
40516;DHT22;26216;53.724;9.898;2024-03-25T11:49:14;11.60;99.90
40516;DHT22;26216;53.724;9.898;2024-03-25T11:51:42;11.60;99.90
40516;DHT22;26216;53.724;9.898;2024-03-25T11:54:11;11.60;99.90
40516;DHT22;26216;53.724;9.898;2024-03-25T11:56:38;11.70;99.90
40516;DHT22;26216;53.724;9.898;2024-03-25T11:59:05;11.80;99.90
40516;DHT22;26216;53.724;9.898;2024-03-25T12:01:32;11.90;99.90
40516;DHT22;26216;53.724;9.898;2024-03-25T12:04:15;12.00;99.90
40516;DHT22;26216;53.724;9.898;2024-03-25T12:06:43;12.10;99.90
40516;DHT22;26216;53.724;9.898;2024-03-25T12:09:12;12.10;99.90
40516;DHT22;26216;53.724;9.898;2024-03-25T12:11:57;12.20;99.90
40516;DHT22;26216;53.724;9.898;2024-03-25T12:14:24;12.30;99.90
40516;DHT22;26216;53.724;9.898;2024-03-25T12:16:55;12.30;99.90
40516;DHT22;26216;53.724;9.898;2024-03-25T12:19:25;12.40;99.90
40516;DHT22;26216;53.724;9.898;2024-03-25T12:21:59;12.40;99.90
40516;DHT22;26216;53.724;9.898;2024-03-25T12:24:26;12.40;99.90
40516;DHT22;26216;53.724;9.898;2024-03-25T12:26:53;12.40;99.90
40516;DHT22;26216;53.724;9.898;2024-03-25T12:29:20;12.40;99.70
40516;DHT22;26216;53.724;9.898;2024-03-25T12:31:57;12.40;99.90
40516;DHT22;26216;53.724;9.898;2024-03-25T12:34:25;12.40;99.90
40516;DHT22;26216;53.724;9.898;2024-03-25T12:36:51;12.50;99.90
40516;DHT22;26216;53.724;9.898;2024-03-25T12:39:26;12.60;99.90
40516;DHT22;26216;53.724;9.898;2024-03-25T12:41:53;12.60;99.90
40516;DHT22;26216;53.724;9.898;2024-03-25T12:44:20;12.60;99.90
40516;DHT22;26216;53.724;9.898;2024-03-25T12:46:46;12.60;99.90
40516;DHT22;26216;53.724;9.898;2024-03-25T12:49:13;12.60;99.90
40516;DHT22;26216;53.724;9.898;2024-03-25T12:51:39;12.50;99.90
40516;DHT22;26216;53.724;9.898;2024-03-25T12:54:06;12.40;99.90
40516;DHT22;26216;53.724;9.898;2024-03-25T12:56:32;12.40;99.90
40516;DHT22;26216;53.724;9.898;2024-03-25T12:58:58;12.40;99.90
40516;DHT22;26216;53.724;9.898;2024-03-25T13:01:25;12.30;99.90
40516;DHT22;26216;53.724;9.898;2024-03-25T13:03:52;12.30;99.90
40516;DHT22;26216;53.724;9.898;2024-03-25T13:06:18;12.20;99.90
40516;DHT22;26216;53.724;9.898;2024-03-25T13:08:44;12.20;99.90
40516;DHT22;26216;53.724;9.898;2024-03-25T13:11:12;12.30;99.90
40516;DHT22;26216;53.724;9.898;2024-03-25T13:13:39;12.30;99.90
40516;DHT22;26216;53.724;9.898;2024-03-25T13:16:05;12.40;99.90
40516;DHT22;26216;53.724;9.898;2024-03-25T13:18:35;12.40;99.90
40516;DHT22;26216;53.724;9.898;2024-03-25T13:21:02;12.40;99.90
40516;DHT22;26216;53.724;9.898;2024-03-25T13:23:28;12.50;99.90
40516;DHT22;26216;53.724;9.898;2024-03-25T13:25:54;12.50;99.90
40516;DHT22;26216;53.724;9.898;2024-03-25T13:28:20;12.60;99.90
40516;DHT22;26216;53.724;9.898;2024-03-25T13:30:47;12.70;99.90
40516;DHT22;26216;53.724;9.898;2024-03-25T13:33:13;12.70;98.70
40516;DHT22;26216;53.724;9.898;2024-03-25T13:35:39;12.70;99.70
40516;DHT22;26216;53.724;9.898;2024-03-25T13:38:05;12.70;99.70
40516;DHT22;26216;53.724;9.898;2024-03-25T13:40:33;12.70;99.50
40516;DHT22;26216;53.724;9.898;2024-03-25T13:43:00;12.70;99.00
40516;DHT22;26216;53.724;9.898;2024-03-25T13:45:26;12.70;99.00
40516;DHT22;26216;53.724;9.898;2024-03-25T13:47:54;12.60;99.90
40516;DHT22;26216;53.724;9.898;2024-03-25T13:50:20;12.70;99.90
40516;DHT22;26216;53.724;9.898;2024-03-25T13:52:48;12.70;99.90
40516;DHT22;26216;53.724;9.898;2024-03-25T13:55:14;12.70;99.90
40516;DHT22;26216;53.724;9.898;2024-03-25T13:57:40;12.70;99.80
40516;DHT22;26216;53.724;9.898;2024-03-25T14:00:06;12.70;99.90
40516;DHT22;26216;53.724;9.898;2024-03-25T14:02:36;12.80;99.90
40516;DHT22;26216;53.724;9.898;2024-03-25T14:05:03;12.80;99.70
40516;DHT22;26216;53.724;9.898;2024-03-25T14:07:30;12.80;99.80
40516;DHT22;26216;53.724;9.898;2024-03-25T14:09:58;12.80;99.50
40516;DHT22;26216;53.724;9.898;2024-03-25T14:12:25;12.90;99.90
40516;DHT22;26216;53.724;9.898;2024-03-25T14:14:51;12.90;99.50
40516;DHT22;26216;53.724;9.898;2024-03-25T14:17:17;13.00;99.10
40516;DHT22;26216;53.724;9.898;2024-03-25T14:19:43;13.00;98.60
40516;DHT22;26216;53.724;9.898;2024-03-25T14:22:09;13.00;99.40
40516;DHT22;26216;53.724;9.898;2024-03-25T14:24:36;13.00;97.50
40516;DHT22;26216;53.724;9.898;2024-03-25T14:27:03;13.00;98.40
40516;DHT22;26216;53.724;9.898;2024-03-25T14:29:30;12.90;97.50
40516;DHT22;26216;53.724;9.898;2024-03-25T14:31:56;12.80;97.90
40516;DHT22;26216;53.724;9.898;2024-03-25T14:34:22;12.70;97.90
40516;DHT22;26216;53.724;9.898;2024-03-25T14:36:48;12.70;97.80
40516;DHT22;26216;53.724;9.898;2024-03-25T14:39:15;12.60;98.20
40516;DHT22;26216;53.724;9.898;2024-03-25T14:41:41;12.50;97.60
40516;DHT22;26216;53.724;9.898;2024-03-25T14:44:07;12.50;98.20
40516;DHT22;26216;53.724;9.898;2024-03-25T14:46:33;12.40;97.40
40516;DHT22;26216;53.724;9.898;2024-03-25T14:49:00;12.40;97.10
40516;DHT22;26216;53.724;9.898;2024-03-25T14:51:26;12.40;96.60
40516;DHT22;26216;53.724;9.898;2024-03-25T14:53:52;12.40;97.30
40516;DHT22;26216;53.724;9.898;2024-03-25T14:56:18;12.40;97.50
40516;DHT22;26216;53.724;9.898;2024-03-25T14:58:44;12.40;96.80
40516;DHT22;26216;53.724;9.898;2024-03-25T15:01:10;12.40;97.80
40516;DHT22;26216;53.724;9.898;2024-03-25T15:03:36;12.40;96.90
40516;DHT22;26216;53.724;9.898;2024-03-25T15:06:03;12.40;97.50
40516;DHT22;26216;53.724;9.898;2024-03-25T15:08:32;12.50;97.80
40516;DHT22;26216;53.724;9.898;2024-03-25T15:10:59;12.50;98.20
40516;DHT22;26216;53.724;9.898;2024-03-25T15:13:25;12.60;98.60
40516;DHT22;26216;53.724;9.898;2024-03-25T15:15:53;12.60;97.50
40516;DHT22;26216;53.724;9.898;2024-03-25T15:18:19;12.60;97.10
40516;DHT22;26216;53.724;9.898;2024-03-25T15:20:46;12.60;97.40
40516;DHT22;26216;53.724;9.898;2024-03-25T15:23:12;12.60;98.40
40516;DHT22;26216;53.724;9.898;2024-03-25T15:25:38;12.70;97.70
40516;DHT22;26216;53.724;9.898;2024-03-25T15:28:04;12.70;97.70
40516;DHT22;26216;53.724;9.898;2024-03-25T15:30:30;12.70;96.40
40516;DHT22;26216;53.724;9.898;2024-03-25T15:32:56;12.70;97.00
40516;DHT22;26216;53.724;9.898;2024-03-25T15:35:22;12.70;97.70
40516;DHT22;26216;53.724;9.898;2024-03-25T15:37:48;12.70;97.40
40516;DHT22;26216;53.724;9.898;2024-03-25T15:40:14;12.80;98.10
40516;DHT22;26216;53.724;9.898;2024-03-25T15:42:43;12.80;98.60
40516;DHT22;26216;53.724;9.898;2024-03-25T15:45:10;12.90;97.30
40516;DHT22;26216;53.724;9.898;2024-03-25T15:47:36;12.80;96.90
40516;DHT22;26216;53.724;9.898;2024-03-25T15:50:03;12.80;96.30
40516;DHT22;26216;53.724;9.898;2024-03-25T15:52:29;12.70;96.30
40516;DHT22;26216;53.724;9.898;2024-03-25T15:54:55;12.60;96.40
40516;DHT22;26216;53.724;9.898;2024-03-25T15:57:21;12.50;96.30
40516;DHT22;26216;53.724;9.898;2024-03-25T15:59:47;12.40;96.10
40516;DHT22;26216;53.724;9.898;2024-03-25T16:02:13;12.40;96.40
40516;DHT22;26216;53.724;9.898;2024-03-25T16:04:40;12.40;96.60
40516;DHT22;26216;53.724;9.898;2024-03-25T16:07:06;12.30;96.70
40516;DHT22;26216;53.724;9.898;2024-03-25T16:09:33;12.30;96.70
40516;DHT22;26216;53.724;9.898;2024-03-25T16:12:00;12.30;97.10
40516;DHT22;26216;53.724;9.898;2024-03-25T16:14:32;12.30;97.40
40516;DHT22;26216;53.724;9.898;2024-03-25T16:16:59;12.30;97.20